• Join FlightAware (Why Join?)
  • Login
  • US Flag GB Flag 
09:05 EST


 

Airport Tracker/Info


-or-


 

Live Flight TrackerFlight Track Log ✈ EJA929 ✈ 18-Feb-2014 ✈ KICT - KICT

Flight Track Log - Related Links

Times and Time Zones

All times are in EST time to prevent confusion due to time zone crossing. See the EJA929 flight status page for this flight to view local times or setup timezone preferences in your user account.

Time Position Orientation Groundspeed Altitude Reporting Facility
EST Latitude Longitude Course Direction KTS MPH feet Rate Location/Type
14:34 37.6383 -97.4281 225° Southwest 173 199 2,200  Level Kansas City Center
14:35 37.6047 -97.4703 225° Southwest 226 260 4,800 2,820 Climbing Kansas City Center
14:36 37.5833 -97.5447 250° West 262 302 7,100 2,520 Climbing Kansas City Center
14:36 37.5853 -97.5525 288° West 280 322 7,400 3,960 Climbing Kansas City Center
14:37 37.6411 -97.5786 340° North 249 287 11,100 3,600 Climbing Kansas City Center
14:37 37.6506 -97.5742 20° North 253 291 11,600 2,520 Climbing Kansas City Center
14:38 37.6983 -97.5547 18° North 249 287 13,800 1,860 Climbing Kansas City Center
14:39 37.7936 -97.5158 18° North 304 350 15,000 540 Climbing Kansas City Center
14:40 37.8756 -97.4842 17° North 305 351 15,000  Level Kansas City Center
14:41 37.9633 -97.4486 18° North 311 358 15,100  Climbing Kansas City Center
14:42 38.0519 -97.4139 17° North 321 369 15,100 -300 Level Kansas City Center
14:43 38.1417 -97.3772 18° North 323 372 14,600 -1,080 Descending Kansas City Center
14:44 38.2222 -97.3561 12° North 315 362 12,900 -1,920 Descending Kansas City Center
14:45 38.2336 -97.4436 279° West 268 308 10,800 -1,980 Descending Kansas City Center
14:45 38.2308 -97.4478 230° Southwest 264 304 10,800 -1,860 Level Kansas City Center
14:46 38.1597 -97.4722 195° South 289 333 8,900 -1,920 Descending Kansas City Center
14:47 38.0806 -97.4578 172° South 291 335 7,000 -1,920 Descending Kansas City Center
14:48 37.9958 -97.4311 166° South 291 335 5,100 -1,800 Descending Kansas City Center
14:49 37.9347 -97.4061 162° South 275 316 3,700 -1,080 Descending Kansas City Center
14:50 37.8711 -97.3789 161° South 234 269 3,100 -300 Descending Kansas City Center
14:51 37.8069 -97.3675 172° South 200 230 3,100  Level Kansas City Center
14:52 37.7553 -97.3756 187° South 181 208 3,100 -300 Level Kansas City Center
14:53 37.7128 -97.3928 198° South 126 145 2,500 -660 Descending Kansas City Center
14:54 37.6806 -97.4083 201° Southwest 119 137 1,800 -720 Descending Kansas City Center
14:56 37.6499 -97.4331 177° South  Level Estimated